createdAt,value
2022-08-24T00:00:04.348Z,21.82
2022-08-24T00:01:04.346Z,21.85
2022-08-24T00:02:04.504Z,21.77
2022-08-24T00:03:04.488Z,21.81
2022-08-24T00:04:04.350Z,21.82
2022-08-24T00:05:04.293Z,21.74
2022-08-24T00:06:04.283Z,21.84
2022-08-24T00:07:04.278Z,21.81
2022-08-24T00:08:04.376Z,21.84
2022-08-24T00:09:04.270Z,21.80
2022-08-24T00:10:04.249Z,21.78
2022-08-24T00:11:04.247Z,21.71
2022-08-24T00:12:04.219Z,21.75
2022-08-24T00:13:04.210Z,21.74
2022-08-24T00:14:04.213Z,21.71
2022-08-24T00:15:04.187Z,21.69
2022-08-24T00:16:04.360Z,21.73
2022-08-24T00:17:04.173Z,21.65
2022-08-24T00:18:04.466Z,21.66
2022-08-24T00:19:04.165Z,21.63
2022-08-24T00:20:04.140Z,21.69
2022-08-24T00:21:04.123Z,21.65
2022-08-24T00:22:04.113Z,21.60
2022-08-24T00:23:04.107Z,21.63
2022-08-24T00:24:04.104Z,21.59
2022-08-24T00:25:04.078Z,21.65
2022-08-24T00:26:04.069Z,21.62
2022-08-24T00:27:04.058Z,21.56
2022-08-24T00:28:04.293Z,21.60
2022-08-24T00:29:07.469Z,21.50
2022-08-24T00:30:04.035Z,21.50
2022-08-24T00:31:04.017Z,21.55
2022-08-24T00:32:04.079Z,21.53
2022-08-24T00:33:03.995Z,21.47
2022-08-24T00:34:04.009Z,21.45
2022-08-24T00:35:03.976Z,21.50
2022-08-24T00:36:03.992Z,21.48
2022-08-24T00:37:03.967Z,21.47
2022-08-24T00:38:04.258Z,21.45
2022-08-24T00:39:04.013Z,21.43
2022-08-24T00:40:03.958Z,21.43
2022-08-24T00:41:03.940Z,21.40
2022-08-24T00:42:03.893Z,21.38
2022-08-24T00:43:03.886Z,21.40
2022-08-24T00:44:03.895Z,21.29
2022-08-24T00:45:03.911Z,21.34
2022-08-24T00:46:03.913Z,21.35
2022-08-24T00:47:03.875Z,21.32
2022-08-24T00:48:04.028Z,21.30
2022-08-24T00:49:03.821Z,21.30
2022-08-24T00:50:03.825Z,21.38
2022-08-24T00:51:03.796Z,21.28
2022-08-24T00:52:03.789Z,21.34
2022-08-24T00:53:03.780Z,21.30
2022-08-24T00:54:03.768Z,21.23
2022-08-24T00:55:03.754Z,21.25
2022-08-24T00:56:03.764Z,21.25
2022-08-24T00:57:03.735Z,21.22
2022-08-24T00:58:03.858Z,21.26
2022-08-24T00:59:03.725Z,21.20
2022-08-24T01:00:03.695Z,21.20
2022-08-24T01:01:03.788Z,21.20
2022-08-24T01:02:14.358Z,21.14
2022-08-24T01:03:04.689Z,21.13
2022-08-24T01:04:03.674Z,21.08
2022-08-24T01:05:03.650Z,21.10
2022-08-24T01:06:03.654Z,21.11
2022-08-24T01:07:03.630Z,21.11
2022-08-24T01:08:03.746Z,21.18
2022-08-24T01:09:03.607Z,21.07
2022-08-24T01:10:03.591Z,21.08
2022-08-24T01:11:03.595Z,21.00
2022-08-24T01:12:03.595Z,21.10
2022-08-24T01:13:03.559Z,21.07
2022-08-24T01:14:03.546Z,20.98
2022-08-24T01:15:03.530Z,20.95
2022-08-24T01:16:03.583Z,21.00
2022-08-24T01:17:03.528Z,20.95
2022-08-24T01:18:03.642Z,20.97
2022-08-24T01:19:03.493Z,20.95
2022-08-24T01:20:03.486Z,20.97
2022-08-24T01:21:03.469Z,20.95
2022-08-24T01:22:03.471Z,20.98
2022-08-24T01:23:03.447Z,20.93
2022-08-24T01:24:03.433Z,20.95
2022-08-24T01:25:03.437Z,20.83
2022-08-24T01:26:03.409Z,20.83
2022-08-24T01:27:03.414Z,20.93
2022-08-24T01:28:05.523Z,20.82
2022-08-24T01:29:03.379Z,20.82
2022-08-24T01:30:03.367Z,20.85
2022-08-24T01:31:03.392Z,20.80
2022-08-24T01:32:03.374Z,20.83
2022-08-24T01:33:03.351Z,20.86
2022-08-24T01:34:05.110Z,20.77
2022-08-24T01:35:03.314Z,20.80
2022-08-24T01:36:03.320Z,20.75
2022-08-24T01:37:03.318Z,20.71
2022-08-24T01:38:03.479Z,20.68
2022-08-24T01:39:03.275Z,20.77
2022-08-24T01:40:03.302Z,20.77
2022-08-24T01:41:03.252Z,20.74
2022-08-24T01:42:03.261Z,20.68
2022-08-24T01:43:03.233Z,20.73
2022-08-24T01:44:03.214Z,20.68
2022-08-24T01:45:03.202Z,20.64
2022-08-24T01:46:03.189Z,20.56
2022-08-24T01:47:06.763Z,20.61
2022-08-24T01:48:03.374Z,20.63
2022-08-24T01:49:03.154Z,20.68
2022-08-24T01:50:03.161Z,20.60
2022-08-24T01:51:03.144Z,20.60
2022-08-24T01:52:03.151Z,20.56
2022-08-24T01:53:05.669Z,20.60
2022-08-24T01:54:03.128Z,20.55
2022-08-24T01:55:03.090Z,20.55
2022-08-24T01:56:03.084Z,20.58
2022-08-24T01:57:03.133Z,20.65
2022-08-24T01:58:03.060Z,20.60
2022-08-24T01:59:03.047Z,20.52
2022-08-24T02:00:03.038Z,20.61
2022-08-24T02:01:03.037Z,20.56
2022-08-24T02:02:03.069Z,20.41
2022-08-24T02:03:03.401Z,20.55
2022-08-24T02:04:03.004Z,20.42
2022-08-24T02:05:02.987Z,20.56
2022-08-24T02:06:02.965Z,20.44
2022-08-24T02:07:02.961Z,20.41
2022-08-24T02:08:02.971Z,20.53
2022-08-24T02:09:02.935Z,20.37
2022-08-24T02:10:02.937Z,20.42
2022-08-24T02:11:02.917Z,20.46
2022-08-24T02:12:02.902Z,20.42
2022-08-24T02:13:03.093Z,20.50
2022-08-24T02:14:02.884Z,20.50
2022-08-24T02:15:02.875Z,20.42
2022-08-24T02:16:02.900Z,20.41
2022-08-24T02:17:02.845Z,20.39
2022-08-24T02:18:02.857Z,20.37
2022-08-24T02:19:02.828Z,20.52
2022-08-24T02:20:02.816Z,20.49
2022-08-24T02:21:02.807Z,20.36
2022-08-24T02:22:02.799Z,20.39
2022-08-24T02:23:02.988Z,20.41
2022-08-24T02:24:02.770Z,20.44
2022-08-24T02:25:02.763Z,20.46
2022-08-24T02:26:02.773Z,20.48
2022-08-24T02:27:02.739Z,20.46
2022-08-24T02:28:02.747Z,20.46
2022-08-24T02:29:03.874Z,20.37
2022-08-24T02:30:02.707Z,20.33
2022-08-24T02:31:02.782Z,20.41
2022-08-24T02:32:02.687Z,20.53
2022-08-24T02:33:02.951Z,20.39
2022-08-24T02:34:02.685Z,20.46
2022-08-24T02:35:02.655Z,20.42
2022-08-24T02:36:02.640Z,20.52
2022-08-24T02:37:02.639Z,20.44
2022-08-24T02:38:02.629Z,20.44
2022-08-24T02:39:02.611Z,20.42
2022-08-24T02:40:02.641Z,20.37
2022-08-24T02:41:02.585Z,20.50
2022-08-24T02:42:02.574Z,20.44
2022-08-24T02:43:02.665Z,20.46
2022-08-24T02:44:02.556Z,20.52
2022-08-24T02:45:02.540Z,20.42
2022-08-24T02:46:02.632Z,20.42
2022-08-24T02:47:02.519Z,20.37
2022-08-24T02:48:02.529Z,20.39
2022-08-24T02:49:11.074Z,20.37
2022-08-24T02:50:03.484Z,20.41
2022-08-24T02:51:02.485Z,20.41
2022-08-24T02:52:02.466Z,20.41
2022-08-24T02:53:02.631Z,20.41
2022-08-24T02:54:02.445Z,20.42
2022-08-24T02:55:02.479Z,20.42
2022-08-24T02:56:02.424Z,20.36
2022-08-24T02:57:02.406Z,20.41
2022-08-24T02:58:02.417Z,20.42
2022-08-24T02:59:02.390Z,20.41
2022-08-24T03:00:04.961Z,20.41
2022-08-24T03:01:02.403Z,20.39
2022-08-24T03:02:02.409Z,20.42
2022-08-24T03:03:02.828Z,20.41
2022-08-24T03:04:02.407Z,20.34
2022-08-24T03:05:02.323Z,20.29
2022-08-24T03:06:02.307Z,20.39
2022-08-24T03:07:02.298Z,20.41
2022-08-24T03:08:02.302Z,20.30
2022-08-24T03:09:02.272Z,20.30
2022-08-24T03:10:02.269Z,20.36
2022-08-24T03:11:02.259Z,20.37
2022-08-24T03:12:02.243Z,20.41
2022-08-24T03:13:02.507Z,20.33
2022-08-24T03:14:02.225Z,20.30
2022-08-24T03:15:02.220Z,20.22
2022-08-24T03:16:02.324Z,20.32
2022-08-24T03:17:02.194Z,20.36
2022-08-24T03:18:02.189Z,20.30
2022-08-24T03:19:02.167Z,20.29
2022-08-24T03:20:02.162Z,20.27
2022-08-24T03:21:02.160Z,20.23
2022-08-24T03:22:02.137Z,20.33
2022-08-24T03:23:02.327Z,20.25
2022-08-24T03:24:02.112Z,20.26
2022-08-24T03:25:02.105Z,20.29
2022-08-24T03:26:02.090Z,20.30
2022-08-24T03:27:02.078Z,20.26
2022-08-24T03:28:02.072Z,20.25
2022-08-24T03:29:02.076Z,20.22
2022-08-24T03:30:02.043Z,20.22
2022-08-24T03:31:02.150Z,20.25
2022-08-24T03:32:02.020Z,20.22
2022-08-24T03:33:02.191Z,20.19
2022-08-24T03:34:02.029Z,20.11
2022-08-24T03:35:01.982Z,20.14
2022-08-24T03:36:01.978Z,20.15
2022-08-24T03:37:01.971Z,20.09
2022-08-24T03:38:01.950Z,20.11
2022-08-24T03:39:01.954Z,20.09
2022-08-24T03:40:02.002Z,20.11
2022-08-24T03:41:01.926Z,20.09
2022-08-24T03:42:01.921Z,20.12
2022-08-24T03:43:01.986Z,20.07
2022-08-24T03:44:01.916Z,20.04
2022-08-24T03:45:01.876Z,20.05
2022-08-24T03:46:01.938Z,19.99
2022-08-24T03:47:01.860Z,19.99
2022-08-24T03:48:01.844Z,20.00
2022-08-24T03:49:01.855Z,20.00
2022-08-24T03:50:01.824Z,19.96
2022-08-24T03:51:01.826Z,19.99
2022-08-24T03:52:01.804Z,19.96
2022-08-24T03:53:01.888Z,19.96
2022-08-24T03:54:01.795Z,19.96
2022-08-24T03:55:01.766Z,19.92
2022-08-24T03:56:01.759Z,19.99
2022-08-24T03:57:02.748Z,19.86
2022-08-24T03:58:01.736Z,19.94
2022-08-24T03:59:01.736Z,19.87
2022-08-24T04:00:01.713Z,19.89
2022-08-24T04:01:01.739Z,19.90
2022-08-24T04:02:01.744Z,19.87
2022-08-24T04:03:01.748Z,19.86
2022-08-24T04:04:01.688Z,19.87
2022-08-24T04:05:01.656Z,19.86
2022-08-24T04:06:01.655Z,19.86
2022-08-24T04:07:01.637Z,19.87
2022-08-24T04:08:01.650Z,19.82
2022-08-24T04:09:01.637Z,19.77
2022-08-24T04:10:01.602Z,19.74
2022-08-24T04:11:01.600Z,19.71
2022-08-24T04:12:01.579Z,19.72
2022-08-24T04:13:01.703Z,19.75
2022-08-24T04:14:01.568Z,19.77
2022-08-24T04:15:01.599Z,19.77
2022-08-24T04:16:01.553Z,19.77
2022-08-24T04:17:01.547Z,19.75
2022-08-24T04:18:01.515Z,19.59
2022-08-24T04:19:01.518Z,19.68
2022-08-24T04:20:01.495Z,19.62
2022-08-24T04:21:01.482Z,19.78
2022-08-24T04:22:01.473Z,19.70
2022-08-24T04:23:01.466Z,19.68
2022-08-24T04:24:01.463Z,19.71
2022-08-24T04:25:01.469Z,19.71
2022-08-24T04:26:01.429Z,19.71
2022-08-24T04:27:01.418Z,19.64
2022-08-24T04:28:01.404Z,19.67
2022-08-24T04:29:01.408Z,19.64
2022-08-24T04:30:01.391Z,19.63
2022-08-24T04:31:01.375Z,19.71
2022-08-24T04:32:01.392Z,19.63
2022-08-24T04:33:01.357Z,19.63
2022-08-24T04:34:01.341Z,19.68
2022-08-24T04:35:01.354Z,19.54
2022-08-24T04:36:01.334Z,19.62
2022-08-24T04:37:01.307Z,19.60
2022-08-24T04:38:01.308Z,19.60
2022-08-24T04:39:01.333Z,19.59
2022-08-24T04:40:01.299Z,19.57
2022-08-24T04:41:01.265Z,19.60
2022-08-24T04:42:03.197Z,19.60
2022-08-24T04:43:01.243Z,19.59
2022-08-24T04:44:01.256Z,19.57
2022-08-24T04:45:01.215Z,19.53
2022-08-24T04:46:01.241Z,19.50
2022-08-24T04:47:01.202Z,19.60
2022-08-24T04:48:01.190Z,19.56
2022-08-24T04:49:01.173Z,19.56
2022-08-24T04:50:01.190Z,19.57
2022-08-24T04:51:01.160Z,19.59
2022-08-24T04:52:01.148Z,19.54
2022-08-24T04:53:01.136Z,19.47
2022-08-24T04:54:01.122Z,19.57
2022-08-24T04:55:01.140Z,19.54
2022-08-24T04:56:01.102Z,19.59
2022-08-24T04:57:01.113Z,19.62
2022-08-24T04:58:01.195Z,19.54
2022-08-24T04:59:01.066Z,19.56
2022-08-24T05:00:01.075Z,19.57
2022-08-24T05:01:01.067Z,19.52
2022-08-24T05:02:01.112Z,19.53
2022-08-24T05:03:01.077Z,19.54
2022-08-24T05:04:01.015Z,19.60
2022-08-24T05:05:01.041Z,19.60
2022-08-24T05:06:00.998Z,19.53
2022-08-24T05:07:00.996Z,19.53
2022-08-24T05:08:00.977Z,19.60
2022-08-24T05:09:00.962Z,19.52
2022-08-24T05:10:00.984Z,19.56
2022-08-24T05:11:00.947Z,19.56
2022-08-24T05:12:00.924Z,19.56
2022-08-24T05:13:00.912Z,19.56
2022-08-24T05:14:00.902Z,19.59
2022-08-24T05:15:00.911Z,19.57
2022-08-24T05:16:00.945Z,19.60
2022-08-24T05:17:00.867Z,19.53
2022-08-24T05:18:00.872Z,19.62
2022-08-24T05:19:00.854Z,19.57
2022-08-24T05:20:00.852Z,19.64
2022-08-24T05:21:00.838Z,19.60
2022-08-24T05:22:00.812Z,19.59
2022-08-24T05:23:03.896Z,19.56
2022-08-24T05:24:00.812Z,19.63
2022-08-24T05:25:00.798Z,19.63
2022-08-24T05:26:00.781Z,19.63
2022-08-24T05:27:00.762Z,19.62
2022-08-24T05:28:00.753Z,19.68
2022-08-24T05:29:00.747Z,19.64
2022-08-24T05:30:00.743Z,19.67
2022-08-24T05:31:00.751Z,19.64
2022-08-24T05:32:00.721Z,19.71
2022-08-24T05:33:00.790Z,19.68
2022-08-24T05:34:00.689Z,19.64
2022-08-24T05:35:00.706Z,19.62
2022-08-24T05:36:00.663Z,19.59
2022-08-24T05:37:00.662Z,19.62
2022-08-24T05:38:00.648Z,19.74
2022-08-24T05:39:00.629Z,19.71
2022-08-24T05:40:00.637Z,19.77
2022-08-24T05:41:00.619Z,19.78
2022-08-24T05:42:00.606Z,19.78
2022-08-24T05:43:00.691Z,19.74
2022-08-24T05:44:00.580Z,19.77
2022-08-24T05:45:00.577Z,19.77
2022-08-24T05:46:00.558Z,19.72
2022-08-24T05:47:00.614Z,19.71
2022-08-24T05:48:00.534Z,19.72
2022-08-24T05:49:00.535Z,19.74
2022-08-24T05:50:00.538Z,19.84
2022-08-24T05:51:00.511Z,19.79
2022-08-24T05:52:00.495Z,19.74
2022-08-24T05:53:00.575Z,19.75
2022-08-24T05:54:00.469Z,19.86
2022-08-24T05:55:00.469Z,19.86
2022-08-24T05:56:00.455Z,19.78
2022-08-24T05:57:00.430Z,19.93
2022-08-24T05:58:00.447Z,19.90
2022-08-24T05:59:00.436Z,19.89
2022-08-24T06:00:00.454Z,19.92
2022-08-24T06:01:00.401Z,19.94
2022-08-24T06:02:00.425Z,19.92
2022-08-24T06:03:00.504Z,19.94
2022-08-24T06:04:00.365Z,19.97
2022-08-24T06:05:00.345Z,19.89
2022-08-24T06:06:00.352Z,19.96
2022-08-24T06:07:00.327Z,19.97
2022-08-24T06:08:00.317Z,20.02
2022-08-24T06:09:00.315Z,20.05
2022-08-24T06:10:14.632Z,20.04
2022-08-24T06:11:01.321Z,20.02
2022-08-24T06:12:00.271Z,20.07
2022-08-24T06:13:00.385Z,20.08
2022-08-24T06:14:00.251Z,19.99
2022-08-24T06:15:00.233Z,20.07
2022-08-24T06:16:20.281Z,20.09
2022-08-24T06:17:01.331Z,20.14
2022-08-24T06:18:00.410Z,20.17
2022-08-24T06:19:00.192Z,20.17
2022-08-24T06:20:00.191Z,20.15
2022-08-24T06:21:00.184Z,20.14
2022-08-24T06:22:00.183Z,20.14
2022-08-24T06:23:00.278Z,20.17
2022-08-24T06:24:00.133Z,20.18
2022-08-24T06:25:00.142Z,20.29
2022-08-24T06:26:00.230Z,20.23
2022-08-24T06:27:00.101Z,20.18
2022-08-24T06:28:00.117Z,20.33
2022-08-24T06:29:00.082Z,20.25
2022-08-24T06:30:00.081Z,20.32
2022-08-24T06:31:00.147Z,20.36
2022-08-24T06:32:00.111Z,20.37
2022-08-24T06:33:00.138Z,20.34
2022-08-24T06:34:00.056Z,20.39
2022-08-24T06:35:00.012Z,20.32
2022-08-24T06:36:00.018Z,20.36
2022-08-24T06:36:59.993Z,20.34
2022-08-24T06:37:59.986Z,20.34
2022-08-24T06:38:59.988Z,20.32
2022-08-24T06:40:00.138Z,20.36
2022-08-24T06:40:59.960Z,20.37
2022-08-24T06:41:59.976Z,20.42
2022-08-24T06:43:00.000Z,20.42
2022-08-24T06:43:59.928Z,20.44
2022-08-24T06:44:59.925Z,20.39
2022-08-24T06:45:59.928Z,20.41
2022-08-24T06:46:59.917Z,20.44
2022-08-24T06:47:59.892Z,20.39
2022-08-24T06:48:59.857Z,20.42
2022-08-24T06:49:59.853Z,20.42
2022-08-24T06:50:59.882Z,20.50
2022-08-24T06:51:59.864Z,20.53
2022-08-24T06:52:59.876Z,20.53
2022-08-24T06:53:59.805Z,20.56
2022-08-24T06:54:59.797Z,20.63
2022-08-24T06:55:59.795Z,20.61
2022-08-24T06:56:59.798Z,20.60
2022-08-24T06:57:59.757Z,20.60
2022-08-24T06:58:59.752Z,20.63
2022-08-24T06:59:59.741Z,20.70
2022-08-24T07:00:59.744Z,20.68
2022-08-24T07:01:59.805Z,20.74
2022-08-24T07:03:00.003Z,20.73
2022-08-24T07:03:59.702Z,20.71
2022-08-24T07:04:59.683Z,20.68
2022-08-24T07:05:59.692Z,20.75
2022-08-24T07:06:59.660Z,20.83
2022-08-24T07:07:59.657Z,20.77
2022-08-24T07:08:59.638Z,20.79
2022-08-24T07:09:59.627Z,20.82
2022-08-24T07:10:59.633Z,20.79
2022-08-24T07:11:59.611Z,20.82
2022-08-24T07:12:59.649Z,20.85
2022-08-24T07:13:59.594Z,20.85
2022-08-24T07:14:59.576Z,20.89
2022-08-24T07:15:59.630Z,20.89
2022-08-24T07:16:59.563Z,20.93
2022-08-24T07:17:59.542Z,20.97
2022-08-24T07:18:59.529Z,21.01
2022-08-24T07:19:59.517Z,20.92
2022-08-24T07:20:59.510Z,21.07
2022-08-24T07:21:59.508Z,21.10
2022-08-24T07:22:59.541Z,21.14
2022-08-24T07:23:59.473Z,21.07
2022-08-24T07:24:59.473Z,21.10
2022-08-24T07:25:59.451Z,21.10
2022-08-24T07:26:59.455Z,21.08
2022-08-24T07:27:59.476Z,21.14
2022-08-24T07:28:59.421Z,21.11
2022-08-24T07:30:23.265Z,21.18
2022-08-24T07:31:00.592Z,21.19
2022-08-24T07:31:59.413Z,21.26
2022-08-24T07:32:59.373Z,21.18
2022-08-24T07:33:59.364Z,21.34
2022-08-24T07:34:59.353Z,21.28
2022-08-24T07:35:59.347Z,21.32
2022-08-24T07:36:59.351Z,21.35
2022-08-24T07:37:59.357Z,21.32
2022-08-24T07:38:59.305Z,21.40
2022-08-24T07:39:59.434Z,21.47
2022-08-24T07:41:33.218Z,21.41
2022-08-24T07:42:22.976Z,21.45
2022-08-24T07:43:00.265Z,21.48
2022-08-24T07:43:59.253Z,21.44
2022-08-24T07:44:59.250Z,21.48
2022-08-24T07:45:59.283Z,21.51
2022-08-24T07:47:10.353Z,21.53
2022-08-24T07:49:11.673Z,21.58
2022-08-24T07:50:00.212Z,21.62
2022-08-24T07:50:59.179Z,21.62
2022-08-24T07:51:59.181Z,21.71
2022-08-24T07:52:59.156Z,21.80
2022-08-24T07:53:59.138Z,21.74
2022-08-24T07:54:59.141Z,21.73
2022-08-24T07:55:59.128Z,21.80
2022-08-24T07:56:59.123Z,21.84
2022-08-24T07:57:59.103Z,21.82
2022-08-24T07:58:59.097Z,21.82
2022-08-24T07:59:59.094Z,21.90
2022-08-24T08:00:59.079Z,21.93
2022-08-24T08:01:59.151Z,21.98
2022-08-24T08:02:59.174Z,21.97
2022-08-24T08:03:59.034Z,21.94
2022-08-24T08:04:59.037Z,21.97
2022-08-24T08:05:59.016Z,22.07
2022-08-24T08:06:59.028Z,22.06
2022-08-24T08:07:59.161Z,22.07
2022-08-24T08:08:58.980Z,22.13
2022-08-24T08:09:58.978Z,22.13
2022-08-24T08:10:58.967Z,22.18
2022-08-24T08:11:58.954Z,22.16
2022-08-24T08:12:58.957Z,22.18
2022-08-24T08:13:58.926Z,22.23
2022-08-24T08:14:58.915Z,22.28
2022-08-24T08:15:59.947Z,22.22
2022-08-24T08:16:58.897Z,22.28
2022-08-24T08:17:58.892Z,22.28
2022-08-24T08:19:12.007Z,22.27
2022-08-24T08:19:59.863Z,22.34
2022-08-24T08:20:58.852Z,22.38
2022-08-24T08:21:58.847Z,22.43
2022-08-24T08:22:58.845Z,22.46
2022-08-24T08:23:58.818Z,22.44
2022-08-24T08:24:58.803Z,22.48
2022-08-24T08:25:58.800Z,22.53
2022-08-24T08:26:58.785Z,22.61
2022-08-24T08:28:04.350Z,22.56
2022-08-24T08:28:59.763Z,22.55
2022-08-24T08:29:58.761Z,22.58
2022-08-24T08:30:58.800Z,22.64
2022-08-24T08:31:58.724Z,22.59
2022-08-24T08:32:58.730Z,22.64
2022-08-24T08:33:58.729Z,22.67
2022-08-24T08:35:02.097Z,22.77
2022-08-24T08:35:58.702Z,22.81
2022-08-24T08:36:58.675Z,22.88
2022-08-24T08:37:58.802Z,22.85
2022-08-24T08:38:58.647Z,22.85
2022-08-24T08:39:58.713Z,22.88
2022-08-24T08:40:58.629Z,22.91
2022-08-24T08:41:58.634Z,23.01
2022-08-24T08:42:58.627Z,22.93
2022-08-24T08:43:58.626Z,22.98
2022-08-24T08:44:58.602Z,22.98
2022-08-24T08:45:58.616Z,23.03
2022-08-24T08:46:58.578Z,23.06
2022-08-24T08:47:58.665Z,23.06
2022-08-24T08:48:58.542Z,23.08
2022-08-24T08:49:58.555Z,23.15
2022-08-24T08:50:58.516Z,23.18
2022-08-24T08:51:58.524Z,23.21
2022-08-24T08:52:58.518Z,23.25
2022-08-24T08:53:58.477Z,23.28
2022-08-24T08:54:58.490Z,23.36
2022-08-24T08:55:58.454Z,23.34
2022-08-24T08:56:59.540Z,23.33
2022-08-24T08:57:58.459Z,23.28
2022-08-24T08:58:59.563Z,23.22
2022-08-24T08:59:58.411Z,23.42
2022-08-24T09:00:58.426Z,23.34
2022-08-24T09:01:58.424Z,23.39
2022-08-24T09:02:58.475Z,23.48
2022-08-24T09:03:58.402Z,23.54
2022-08-24T09:04:58.385Z,23.48
2022-08-24T09:05:58.358Z,23.49
2022-08-24T09:06:58.339Z,23.48
2022-08-24T09:07:58.353Z,23.55
2022-08-24T09:08:58.319Z,23.59
2022-08-24T09:09:58.307Z,23.54
2022-08-24T09:10:58.295Z,23.55
2022-08-24T09:11:58.300Z,23.64
2022-08-24T09:12:58.286Z,23.66
2022-08-24T09:13:58.259Z,23.64
2022-08-24T09:14:58.259Z,23.69
2022-08-24T09:15:58.238Z,23.73
2022-08-24T09:16:58.317Z,23.76
2022-08-24T09:17:58.283Z,23.76
2022-08-24T09:18:58.236Z,23.81
2022-08-24T09:19:58.199Z,23.76
2022-08-24T09:20:58.193Z,23.81
2022-08-24T09:21:58.175Z,23.88
2022-08-24T09:22:58.169Z,23.96
2022-08-24T09:23:58.187Z,23.88
2022-08-24T09:24:58.157Z,23.91
2022-08-24T09:25:58.150Z,23.96
2022-08-24T09:26:58.120Z,24.01
2022-08-24T09:27:58.122Z,24.03
2022-08-24T09:28:58.161Z,24.01
2022-08-24T09:29:58.091Z,24.06
2022-08-24T09:30:58.178Z,24.03
2022-08-24T09:31:58.076Z,24.16
2022-08-24T09:32:58.076Z,24.15
2022-08-24T09:33:58.063Z,24.21
2022-08-24T09:34:58.037Z,24.18
2022-08-24T09:35:58.035Z,24.23
2022-08-24T09:36:58.022Z,24.28
2022-08-24T09:37:57.999Z,24.31
2022-08-24T09:38:58.011Z,24.26
2022-08-24T09:39:58.025Z,24.23
2022-08-24T09:40:57.979Z,24.29
2022-08-24T09:41:57.987Z,24.33
2022-08-24T09:42:57.990Z,24.40
2022-08-24T09:44:02.722Z,24.41
2022-08-24T09:44:58.975Z,24.43
2022-08-24T09:45:57.982Z,24.33
2022-08-24T09:46:57.914Z,24.45
2022-08-24T09:47:57.901Z,24.48
2022-08-24T09:48:57.900Z,24.51
2022-08-24T09:49:57.878Z,24.52
2022-08-24T09:50:57.869Z,24.53
2022-08-24T09:51:57.883Z,24.55
2022-08-24T09:52:57.914Z,24.62
2022-08-24T09:53:57.835Z,24.62
2022-08-24T09:54:57.854Z,24.58
2022-08-24T09:55:57.808Z,24.56
2022-08-24T09:57:11.559Z,24.53
2022-08-24T09:58:08.985Z,24.56
2022-08-24T09:58:58.784Z,24.65
2022-08-24T09:59:57.784Z,24.66
2022-08-24T10:00:57.789Z,24.68
2022-08-24T10:01:57.765Z,24.70
2022-08-24T10:02:57.816Z,24.74
2022-08-24T10:03:57.733Z,24.75
2022-08-24T10:04:57.831Z,24.76
2022-08-24T10:05:57.843Z,24.78
2022-08-24T10:06:57.700Z,24.79
2022-08-24T10:07:57.676Z,24.76
2022-08-24T10:08:57.678Z,24.75
2022-08-24T10:09:57.701Z,24.85
2022-08-24T10:10:57.652Z,24.81
2022-08-24T10:11:57.636Z,24.79
2022-08-24T10:12:57.622Z,24.84
2022-08-24T10:13:57.615Z,24.82
2022-08-24T10:14:57.627Z,24.79
2022-08-24T10:15:57.590Z,24.90
2022-08-24T10:16:57.636Z,24.89
2022-08-24T10:17:57.633Z,24.93
2022-08-24T10:18:57.586Z,24.93
2022-08-24T10:19:57.578Z,24.94
2022-08-24T10:20:57.540Z,24.99
2022-08-24T10:21:57.529Z,24.99
2022-08-24T10:22:57.522Z,25.00
2022-08-24T10:23:57.513Z,25.03
2022-08-24T10:24:57.539Z,25.00
2022-08-24T10:25:57.494Z,24.99
2022-08-24T10:26:57.478Z,25.09
2022-08-24T10:27:57.541Z,25.00
2022-08-24T10:28:57.464Z,25.11
2022-08-24T10:29:57.464Z,25.09
2022-08-24T10:30:57.455Z,25.09
2022-08-24T10:31:57.464Z,25.14
2022-08-24T10:32:57.419Z,25.16
2022-08-24T10:33:57.427Z,25.15
2022-08-24T10:34:57.400Z,25.21
2022-08-24T10:35:57.412Z,25.15
2022-08-24T10:36:57.401Z,25.28
2022-08-24T10:37:57.447Z,25.23
2022-08-24T10:38:57.363Z,25.28
2022-08-24T10:40:01.854Z,25.34
2022-08-24T10:40:58.369Z,25.41
2022-08-24T10:41:57.322Z,25.48
2022-08-24T10:42:57.327Z,25.52
2022-08-24T10:43:57.307Z,25.51
2022-08-24T10:44:57.279Z,25.53
2022-08-24T10:45:57.423Z,25.63
2022-08-24T10:46:58.873Z,25.67
2022-08-24T10:47:57.302Z,25.78
2022-08-24T10:48:57.249Z,25.85
2022-08-24T10:49:57.265Z,25.93
2022-08-24T10:50:57.248Z,26.01
2022-08-24T10:51:57.202Z,26.10
2022-08-24T10:52:57.212Z,26.11
2022-08-24T10:53:57.202Z,26.08
2022-08-24T10:54:57.180Z,26.27
2022-08-24T10:55:57.192Z,26.27
2022-08-24T10:56:57.170Z,26.38
2022-08-24T10:57:57.156Z,26.42
2022-08-24T10:58:57.131Z,26.45
2022-08-24T10:59:57.131Z,26.56
2022-08-24T11:00:57.174Z,26.61
2022-08-24T11:01:57.108Z,26.67
2022-08-24T11:02:57.089Z,26.78
2022-08-24T11:03:57.091Z,26.79
2022-08-24T11:04:57.064Z,26.79
2022-08-24T11:05:57.065Z,26.97
2022-08-24T11:06:57.046Z,26.89
2022-08-24T11:07:57.030Z,26.95
2022-08-24T11:08:57.030Z,27.10
2022-08-24T11:09:57.014Z,27.17
2022-08-24T11:10:57.023Z,27.20
2022-08-24T11:11:56.993Z,27.34
2022-08-24T11:12:56.987Z,27.32
2022-08-24T11:13:56.966Z,27.37
2022-08-24T11:14:56.993Z,27.45
2022-08-24T11:15:57.039Z,27.44
2022-08-24T11:16:58.058Z,27.52
2022-08-24T11:17:56.919Z,27.54
2022-08-24T11:18:56.917Z,27.54
2022-08-24T11:19:56.904Z,27.60
2022-08-24T11:20:56.911Z,27.64
2022-08-24T11:21:56.891Z,27.85
2022-08-24T11:22:56.891Z,27.78
2022-08-24T11:23:56.867Z,27.79
2022-08-24T11:24:56.857Z,27.90
2022-08-24T11:25:56.844Z,28.05
2022-08-24T11:26:56.851Z,28.03
2022-08-24T11:27:56.821Z,28.12
2022-08-24T11:28:56.808Z,28.19
2022-08-24T11:29:56.794Z,28.15
2022-08-24T11:30:56.803Z,28.27
2022-08-24T11:31:56.842Z,28.38
2022-08-24T11:32:56.767Z,28.46
2022-08-24T11:33:56.755Z,28.56
2022-08-24T11:34:56.765Z,28.65
2022-08-24T11:35:56.739Z,28.75
2022-08-24T11:36:56.737Z,28.75
2022-08-24T11:37:56.712Z,28.81
2022-08-24T11:38:56.695Z,28.87
2022-08-24T11:39:56.721Z,29.00
2022-08-24T11:40:56.676Z,29.12
2022-08-24T11:41:56.679Z,29.19
2022-08-24T11:42:56.662Z,29.28
2022-08-24T11:43:56.649Z,29.29
2022-08-24T11:44:56.630Z,29.40
2022-08-24T11:45:56.628Z,29.41
2022-08-24T11:46:56.677Z,29.47
2022-08-24T11:47:56.597Z,29.50
2022-08-24T11:48:56.604Z,29.59
2022-08-24T11:49:56.586Z,29.71
2022-08-24T11:50:56.586Z,29.71
2022-08-24T11:51:56.595Z,29.77
2022-08-24T11:52:56.546Z,29.80
2022-08-24T11:53:56.567Z,29.91
2022-08-24T11:54:56.536Z,30.03
2022-08-24T11:55:57.152Z,30.07
2022-08-24T11:56:56.524Z,30.17
2022-08-24T11:57:56.498Z,30.20
2022-08-24T11:58:56.498Z,30.24
2022-08-24T11:59:56.499Z,30.30
2022-08-24T12:00:56.484Z,30.36
2022-08-24T12:01:56.583Z,30.39
2022-08-24T12:02:56.634Z,30.56
2022-08-24T12:03:56.433Z,30.59
2022-08-24T12:04:56.439Z,30.71
2022-08-24T12:05:56.409Z,30.70
2022-08-24T12:06:56.420Z,30.67
2022-08-24T12:07:56.391Z,30.77
2022-08-24T12:08:56.381Z,30.77
2022-08-24T12:09:56.375Z,30.88
2022-08-24T12:10:56.378Z,31.04
2022-08-24T12:11:56.365Z,30.99
2022-08-24T12:12:56.336Z,31.10
2022-08-24T12:13:56.325Z,31.08
2022-08-24T12:14:57.287Z,31.26
2022-08-24T12:15:56.400Z,31.17
2022-08-24T12:16:56.325Z,31.33
2022-08-24T12:17:56.305Z,31.27
2022-08-24T12:18:56.268Z,31.34
2022-08-24T12:19:56.267Z,31.39
2022-08-24T12:20:56.252Z,31.45
2022-08-24T12:21:56.235Z,31.57
2022-08-24T12:22:56.245Z,31.64
2022-08-24T12:23:56.222Z,31.52
2022-08-24T12:24:56.206Z,31.61
2022-08-24T12:25:56.206Z,31.60
2022-08-24T12:26:56.184Z,31.66
2022-08-24T12:27:56.190Z,31.60
2022-08-24T12:28:56.164Z,31.63
2022-08-24T12:29:56.154Z,31.67
2022-08-24T12:30:56.156Z,31.71
2022-08-24T12:31:56.320Z,31.78
2022-08-24T12:32:56.263Z,31.78
2022-08-24T12:33:56.138Z,31.81
2022-08-24T12:34:58.745Z,31.94
2022-08-24T12:35:56.109Z,31.89
2022-08-24T12:36:56.085Z,32.02
2022-08-24T12:37:56.093Z,32.06
2022-08-24T12:38:56.069Z,32.06
2022-08-24T12:39:56.083Z,32.19
2022-08-24T12:40:56.053Z,32.26
2022-08-24T12:41:56.028Z,32.23
2022-08-24T12:42:56.049Z,32.28
2022-08-24T12:43:56.009Z,32.32
2022-08-24T12:44:56.009Z,32.41
2022-08-24T12:45:55.987Z,32.46
2022-08-24T12:46:56.030Z,32.39
2022-08-24T12:47:55.984Z,32.42
2022-08-24T12:48:55.962Z,32.41
2022-08-24T12:49:55.946Z,32.53
2022-08-24T12:50:55.939Z,32.41
2022-08-24T12:51:56.407Z,32.50
2022-08-24T12:52:55.931Z,32.45